Chester, Ohio
Current Conditions -  °F | °C
As of 8:15 PM on Monday 26 Jan 2015 (Local Time) from K3I2 Reporting Station
Overcast Overcast  
Wind Chill: 19°   Ceiling: 3000
Heat Index: 25°   Visibility: 10mi
Dew Point: 19°   Wind: 5mph
Humidity: 80%   Direction: 300°WNW
Pressure: 29.96"   Gusts: NA
Location:  39.09°N, 81.92°W
Report Text: K3I2 270115Z AUTO 30004KT 10SM SCT015 OVC030 M04/M07 A2996 RMK AO2
Loading
Personal Weather Stations






























Interactive Weather Map New forecast layout! Learn more

10-Day Weather Forecast

Advertisements
Track Severe Weather on mobile